sensor_id;sensor_type;location;lat;lon;timestamp;pressure;altitude;pressure_sealevel;temperature;humidity
15263;BME280;7733;51.554;13.590;2023-06-19T00:02:21;100241.94;;;20.52;63.83
15263;BME280;7733;51.554;13.590;2023-06-19T00:04:48;100253.56;;;19.36;69.70
15263;BME280;7733;51.554;13.590;2023-06-19T00:07:13;100247.00;;;20.09;66.60
15263;BME280;7733;51.554;13.590;2023-06-19T00:09:39;100251.16;;;19.49;68.93
15263;BME280;7733;51.554;13.590;2023-06-19T00:12:05;100249.75;;;20.08;66.65
15263;BME280;7733;51.554;13.590;2023-06-19T00:14:31;100255.56;;;20.14;65.98
15263;BME280;7733;51.554;13.590;2023-06-19T00:16:58;100252.66;;;20.34;64.56
15263;BME280;7733;51.554;13.590;2023-06-19T00:19:26;100252.56;;;20.36;64.60
15263;BME280;7733;51.554;13.590;2023-06-19T00:21:52;100246.56;;;20.32;64.91
15263;BME280;7733;51.554;13.590;2023-06-19T00:24:23;100259.38;;;20.42;64.43
15263;BME280;7733;51.554;13.590;2023-06-19T00:26:49;100258.84;;;20.19;65.60
15263;BME280;7733;51.554;13.590;2023-06-19T00:29:14;100255.59;;;19.48;68.26
15263;BME280;7733;51.554;13.590;2023-06-19T00:31:40;100249.28;;;19.84;67.27
15263;BME280;7733;51.554;13.590;2023-06-19T00:34:06;100251.53;;;19.58;68.15
15263;BME280;7733;51.554;13.590;2023-06-19T00:36:32;100244.00;;;19.66;67.52
15263;BME280;7733;51.554;13.590;2023-06-19T00:38:57;100244.56;;;19.89;65.70
15263;BME280;7733;51.554;13.590;2023-06-19T00:41:26;100240.03;;;19.91;65.81
15263;BME280;7733;51.554;13.590;2023-06-19T00:43:53;100243.63;;;19.90;66.51
15263;BME280;7733;51.554;13.590;2023-06-19T00:46:19;100234.34;;;19.97;66.16
15263;BME280;7733;51.554;13.590;2023-06-19T00:48:45;100236.31;;;19.93;65.88
15263;BME280;7733;51.554;13.590;2023-06-19T00:51:11;100244.31;;;19.10;69.35
15263;BME280;7733;51.554;13.590;2023-06-19T00:53:37;100243.03;;;18.65;72.00
15263;BME280;7733;51.554;13.590;2023-06-19T00:56:05;100242.25;;;19.15;70.43
15263;BME280;7733;51.554;13.590;2023-06-19T00:58:31;100238.69;;;19.49;68.17
15263;BME280;7733;51.554;13.590;2023-06-19T01:00:58;100239.84;;;19.61;67.06
15263;BME280;7733;51.554;13.590;2023-06-19T01:03:23;100244.53;;;19.73;66.30
15263;BME280;7733;51.554;13.590;2023-06-19T01:05:54;100248.91;;;19.74;66.60
15263;BME280;7733;51.554;13.590;2023-06-19T01:11:20;100234.94;;;19.86;65.80
15263;BME280;7733;51.554;13.590;2023-06-19T01:13:58;100240.75;;;19.77;66.43
15263;BME280;7733;51.554;13.590;2023-06-19T01:16:28;100231.25;;;19.89;65.24
15263;BME280;7733;51.554;13.590;2023-06-19T01:18:54;100226.59;;;19.77;66.64
15263;BME280;7733;51.554;13.590;2023-06-19T01:21:20;100235.75;;;19.55;67.72
15263;BME280;7733;51.554;13.590;2023-06-19T01:23:45;100234.31;;;19.81;66.11
15263;BME280;7733;51.554;13.590;2023-06-19T01:26:13;100235.56;;;19.41;68.62
15263;BME280;7733;51.554;13.590;2023-06-19T01:28:42;100226.63;;;19.09;70.33
15263;BME280;7733;51.554;13.590;2023-06-19T01:31:18;100227.00;;;19.01;70.64
15263;BME280;7733;51.554;13.590;2023-06-19T01:33:47;100231.47;;;18.66;72.52
15263;BME280;7733;51.554;13.590;2023-06-19T01:36:18;100217.38;;;19.16;69.99
15263;BME280;7733;51.554;13.590;2023-06-19T01:38:47;100220.38;;;18.75;72.29
15263;BME280;7733;51.554;13.590;2023-06-19T01:41:15;100214.03;;;18.78;72.41
15263;BME280;7733;51.554;13.590;2023-06-19T01:43:42;100210.69;;;19.09;70.43
15263;BME280;7733;51.554;13.590;2023-06-19T01:46:08;100204.66;;;19.38;68.78
15263;BME280;7733;51.554;13.590;2023-06-19T01:48:35;100202.22;;;19.51;68.19
15263;BME280;7733;51.554;13.590;2023-06-19T01:51:02;100204.03;;;19.51;68.20
15263;BME280;7733;51.554;13.590;2023-06-19T01:53:31;100198.06;;;19.12;70.51
15263;BME280;7733;51.554;13.590;2023-06-19T01:55:58;100196.53;;;19.41;69.17
15263;BME280;7733;51.554;13.590;2023-06-19T01:58:24;100195.91;;;19.54;68.04
15263;BME280;7733;51.554;13.590;2023-06-19T02:00:50;100194.03;;;19.56;67.42
15263;BME280;7733;51.554;13.590;2023-06-19T02:03:16;100188.53;;;19.59;67.43
15263;BME280;7733;51.554;13.590;2023-06-19T02:05:42;100194.31;;;19.17;70.17
15263;BME280;7733;51.554;13.590;2023-06-19T02:08:08;100187.38;;;18.97;71.84
15263;BME280;7733;51.554;13.590;2023-06-19T02:10:34;100192.31;;;18.87;72.62
15263;BME280;7733;51.554;13.590;2023-06-19T02:13:00;100194.13;;;18.50;75.16
15263;BME280;7733;51.554;13.590;2023-06-19T02:15:26;100188.31;;;18.96;72.37
15263;BME280;7733;51.554;13.590;2023-06-19T02:17:51;100194.97;;;18.34;75.24
15263;BME280;7733;51.554;13.590;2023-06-19T02:20:22;100182.38;;;18.91;71.97
15263;BME280;7733;51.554;13.590;2023-06-19T02:22:47;100180.53;;;19.26;69.92
15263;BME280;7733;51.554;13.590;2023-06-19T02:25:13;100183.06;;;19.11;70.16
15263;BME280;7733;51.554;13.590;2023-06-19T02:27:39;100185.84;;;18.57;73.46
15263;BME280;7733;51.554;13.590;2023-06-19T02:30:07;100183.56;;;19.02;70.98
15263;BME280;7733;51.554;13.590;2023-06-19T02:32:33;100184.28;;;19.22;69.68
15263;BME280;7733;51.554;13.590;2023-06-19T02:34:59;100180.13;;;19.33;69.32
15263;BME280;7733;51.554;13.590;2023-06-19T02:37:24;100185.88;;;19.41;68.57
15263;BME280;7733;51.554;13.590;2023-06-19T02:39:50;100174.28;;;19.27;69.54
15263;BME280;7733;51.554;13.590;2023-06-19T02:42:16;100178.66;;;19.28;69.29
15263;BME280;7733;51.554;13.590;2023-06-19T02:44:42;100173.34;;;19.28;69.54
15263;BME280;7733;51.554;13.590;2023-06-19T02:47:11;100175.75;;;19.32;69.39
15263;BME280;7733;51.554;13.590;2023-06-19T02:49:37;100169.53;;;19.49;68.42
15263;BME280;7733;51.554;13.590;2023-06-19T02:52:03;100175.69;;;19.17;70.33
15263;BME280;7733;51.554;13.590;2023-06-19T02:54:29;100186.06;;;19.05;71.48
15263;BME280;7733;51.554;13.590;2023-06-19T02:56:55;100179.31;;;18.98;71.74
15263;BME280;7733;51.554;13.590;2023-06-19T02:59:21;100181.25;;;19.12;71.07
15263;BME280;7733;51.554;13.590;2023-06-19T03:01:47;100175.03;;;18.96;71.93
15263;BME280;7733;51.554;13.590;2023-06-19T03:04:13;100173.19;;;19.13;70.77
15263;BME280;7733;51.554;13.590;2023-06-19T03:06:39;100174.66;;;19.19;69.98
15263;BME280;7733;51.554;13.590;2023-06-19T03:09:06;100171.63;;;19.27;69.93
15263;BME280;7733;51.554;13.590;2023-06-19T03:11:41;100177.25;;;19.21;70.88
15263;BME280;7733;51.554;13.590;2023-06-19T03:14:07;100182.22;;;18.94;72.23
15263;BME280;7733;51.554;13.590;2023-06-19T03:16:36;100170.84;;;18.55;74.08
15263;BME280;7733;51.554;13.590;2023-06-19T03:19:02;100175.50;;;19.04;71.31
15263;BME280;7733;51.554;13.590;2023-06-19T03:21:28;100184.38;;;19.20;70.23
15263;BME280;7733;51.554;13.590;2023-06-19T03:23:53;100182.09;;;19.30;69.52
15263;BME280;7733;51.554;13.590;2023-06-19T03:26:21;100174.22;;;19.11;70.56
15263;BME280;7733;51.554;13.590;2023-06-19T03:28:47;100183.22;;;19.26;70.05
15263;BME280;7733;51.554;13.590;2023-06-19T03:31:14;100181.41;;;19.42;69.28
15263;BME280;7733;51.554;13.590;2023-06-19T03:33:40;100184.94;;;19.09;72.37
15263;BME280;7733;51.554;13.590;2023-06-19T03:36:06;100182.31;;;18.75;75.04
15263;BME280;7733;51.554;13.590;2023-06-19T03:38:33;100175.97;;;18.77;75.27
15263;BME280;7733;51.554;13.590;2023-06-19T03:40:59;100182.91;;;18.80;75.69
15263;BME280;7733;51.554;13.590;2023-06-19T03:43:24;100179.97;;;19.03;74.34
15263;BME280;7733;51.554;13.590;2023-06-19T03:45:50;100178.34;;;19.17;73.30
15263;BME280;7733;51.554;13.590;2023-06-19T03:48:17;100177.31;;;18.86;75.56
15263;BME280;7733;51.554;13.590;2023-06-19T03:50:43;100172.69;;;18.90;75.96
15263;BME280;7733;51.554;13.590;2023-06-19T03:53:09;100179.78;;;19.06;76.01
15263;BME280;7733;51.554;13.590;2023-06-19T03:55:35;100171.50;;;19.45;72.72
15263;BME280;7733;51.554;13.590;2023-06-19T03:58:01;100178.16;;;19.04;75.63
15263;BME280;7733;51.554;13.590;2023-06-19T04:00:27;100178.31;;;19.34;74.51
15263;BME280;7733;51.554;13.590;2023-06-19T04:02:53;100173.38;;;19.43;74.59
15263;BME280;7733;51.554;13.590;2023-06-19T04:05:19;100170.00;;;19.57;74.08
15263;BME280;7733;51.554;13.590;2023-06-19T04:07:45;100163.06;;;19.70;73.59
15263;BME280;7733;51.554;13.590;2023-06-19T04:10:11;100160.91;;;19.77;73.54
15263;BME280;7733;51.554;13.590;2023-06-19T04:12:38;100169.84;;;19.92;72.97
15263;BME280;7733;51.554;13.590;2023-06-19T04:15:09;100172.34;;;19.95;73.89
15263;BME280;7733;51.554;13.590;2023-06-19T04:17:35;100176.03;;;20.24;72.05
15263;BME280;7733;51.554;13.590;2023-06-19T04:20:01;100178.69;;;19.92;74.24
15263;BME280;7733;51.554;13.590;2023-06-19T04:22:28;100182.56;;;20.02;74.10
15263;BME280;7733;51.554;13.590;2023-06-19T04:24:54;100183.75;;;20.13;73.44
15263;BME280;7733;51.554;13.590;2023-06-19T04:27:20;100181.66;;;20.33;72.05
15263;BME280;7733;51.554;13.590;2023-06-19T04:29:47;100186.50;;;20.43;71.24
15263;BME280;7733;51.554;13.590;2023-06-19T04:32:12;100190.97;;;20.26;73.30
15263;BME280;7733;51.554;13.590;2023-06-19T04:34:38;100184.06;;;20.54;72.01
15263;BME280;7733;51.554;13.590;2023-06-19T04:37:05;100195.09;;;20.48;71.70
15263;BME280;7733;51.554;13.590;2023-06-19T04:39:30;100190.59;;;20.64;71.58
15263;BME280;7733;51.554;13.590;2023-06-19T04:41:56;100189.66;;;20.65;71.38
15263;BME280;7733;51.554;13.590;2023-06-19T04:44:22;100183.38;;;20.80;71.52
15263;BME280;7733;51.554;13.590;2023-06-19T04:46:48;100187.63;;;20.99;71.57
15263;BME280;7733;51.554;13.590;2023-06-19T04:49:13;100190.31;;;21.13;71.10
15263;BME280;7733;51.554;13.590;2023-06-19T04:51:41;100191.47;;;21.09;70.91
15263;BME280;7733;51.554;13.590;2023-06-19T04:54:07;100193.91;;;20.98;71.50
15263;BME280;7733;51.554;13.590;2023-06-19T04:56:32;100188.66;;;21.26;70.88
15263;BME280;7733;51.554;13.590;2023-06-19T04:58:58;100183.50;;;21.51;69.23
15263;BME280;7733;51.554;13.590;2023-06-19T05:01:26;100185.88;;;21.56;69.02
15263;BME280;7733;51.554;13.590;2023-06-19T05:03:56;100185.78;;;21.72;68.12
15263;BME280;7733;51.554;13.590;2023-06-19T05:06:23;100188.63;;;21.83;68.54
15263;BME280;7733;51.554;13.590;2023-06-19T05:08:49;100189.56;;;21.96;68.31
15263;BME280;7733;51.554;13.590;2023-06-19T05:11:15;100183.81;;;22.02;68.32
15263;BME280;7733;51.554;13.590;2023-06-19T05:13:41;100191.50;;;21.37;72.06
15263;BME280;7733;51.554;13.590;2023-06-19T05:16:07;100194.56;;;21.74;70.51
15263;BME280;7733;51.554;13.590;2023-06-19T05:18:33;100185.19;;;21.81;69.80
15263;BME280;7733;51.554;13.590;2023-06-19T05:20:59;100183.72;;;21.63;70.23
15263;BME280;7733;51.554;13.590;2023-06-19T05:23:24;100188.38;;;22.00;68.71
15263;BME280;7733;51.554;13.590;2023-06-19T05:25:50;100182.63;;;22.21;67.40
15263;BME280;7733;51.554;13.590;2023-06-19T05:28:16;100179.94;;;21.94;68.92
15263;BME280;7733;51.554;13.590;2023-06-19T05:30:42;100182.06;;;22.30;67.69
15263;BME280;7733;51.554;13.590;2023-06-19T05:33:07;100195.66;;;22.12;69.07
15263;BME280;7733;51.554;13.590;2023-06-19T05:35:33;100201.94;;;21.97;70.11
15263;BME280;7733;51.554;13.590;2023-06-19T05:37:59;100187.19;;;22.33;68.38
15263;BME280;7733;51.554;13.590;2023-06-19T05:40:25;100192.53;;;22.33;68.40
15263;BME280;7733;51.554;13.590;2023-06-19T05:42:50;100198.50;;;22.24;69.63
15263;BME280;7733;51.554;13.590;2023-06-19T05:45:16;100200.63;;;21.90;71.86
15263;BME280;7733;51.554;13.590;2023-06-19T05:47:42;100198.69;;;22.21;70.45
15263;BME280;7733;51.554;13.590;2023-06-19T05:50:09;100196.34;;;22.43;69.29
15263;BME280;7733;51.554;13.590;2023-06-19T05:52:34;100199.44;;;22.50;68.71
15263;BME280;7733;51.554;13.590;2023-06-19T05:55:00;100200.94;;;22.54;68.89
15263;BME280;7733;51.554;13.590;2023-06-19T05:57:27;100203.56;;;22.68;67.88
15263;BME280;7733;51.554;13.590;2023-06-19T05:59:53;100205.72;;;22.75;67.15
15263;BME280;7733;51.554;13.590;2023-06-19T06:02:20;100199.06;;;22.29;70.01
15263;BME280;7733;51.554;13.590;2023-06-19T06:04:46;100184.75;;;22.42;69.41
15263;BME280;7733;51.554;13.590;2023-06-19T06:07:12;100172.72;;;22.62;68.06
15263;BME280;7733;51.554;13.590;2023-06-19T06:09:39;100169.19;;;22.62;67.76
15263;BME280;7733;51.554;13.590;2023-06-19T06:12:05;100172.78;;;22.75;67.79
15263;BME280;7733;51.554;13.590;2023-06-19T06:14:31;100182.72;;;22.73;67.09
15263;BME280;7733;51.554;13.590;2023-06-19T06:16:57;100176.25;;;22.90;66.11
15263;BME280;7733;51.554;13.590;2023-06-19T06:19:22;100184.06;;;22.93;67.47
15263;BME280;7733;51.554;13.590;2023-06-19T06:21:49;100178.75;;;22.78;69.26
15263;BME280;7733;51.554;13.590;2023-06-19T06:24:15;100185.91;;;22.65;70.17
15263;BME280;7733;51.554;13.590;2023-06-19T06:26:41;100189.88;;;22.72;69.46
15263;BME280;7733;51.554;13.590;2023-06-19T06:29:08;100196.59;;;22.92;68.20
15263;BME280;7733;51.554;13.590;2023-06-19T06:31:38;100192.97;;;23.19;66.61
15263;BME280;7733;51.554;13.590;2023-06-19T06:34:05;100194.50;;;23.23;66.27
15263;BME280;7733;51.554;13.590;2023-06-19T06:36:30;100199.63;;;23.26;66.27
15263;BME280;7733;51.554;13.590;2023-06-19T06:38:56;100200.91;;;23.33;65.72
15263;BME280;7733;51.554;13.590;2023-06-19T06:41:22;100213.13;;;23.24;66.91
15263;BME280;7733;51.554;13.590;2023-06-19T06:43:48;100218.19;;;22.89;69.33
15263;BME280;7733;51.554;13.590;2023-06-19T06:46:13;100220.13;;;22.87;69.83
15263;BME280;7733;51.554;13.590;2023-06-19T06:48:40;100220.91;;;23.15;68.64
15263;BME280;7733;51.554;13.590;2023-06-19T06:51:05;100219.75;;;23.31;67.95
15263;BME280;7733;51.554;13.590;2023-06-19T06:53:31;100225.72;;;23.10;69.25
15263;BME280;7733;51.554;13.590;2023-06-19T06:55:58;100230.34;;;23.08;69.12
15263;BME280;7733;51.554;13.590;2023-06-19T06:58:26;100225.41;;;23.40;67.23
15263;BME280;7733;51.554;13.590;2023-06-19T07:00:52;100223.19;;;23.59;66.27
15263;BME280;7733;51.554;13.590;2023-06-19T07:03:18;100219.97;;;23.54;65.69
15263;BME280;7733;51.554;13.590;2023-06-19T07:05:44;100218.69;;;23.72;65.25
15263;BME280;7733;51.554;13.590;2023-06-19T07:08:10;100215.25;;;23.70;65.03
15263;BME280;7733;51.554;13.590;2023-06-19T07:10:36;100214.38;;;23.82;64.39
15263;BME280;7733;51.554;13.590;2023-06-19T07:13:02;100219.09;;;23.79;64.73
15263;BME280;7733;51.554;13.590;2023-06-19T07:15:28;100213.94;;;23.88;64.37
15263;BME280;7733;51.554;13.590;2023-06-19T07:17:53;100207.53;;;23.78;64.34
15263;BME280;7733;51.554;13.590;2023-06-19T07:20:19;100216.97;;;23.46;64.92
15263;BME280;7733;51.554;13.590;2023-06-19T07:22:45;100211.63;;;23.71;64.01
15263;BME280;7733;51.554;13.590;2023-06-19T07:25:12;100222.34;;;23.58;64.21
15263;BME280;7733;51.554;13.590;2023-06-19T07:27:41;100221.47;;;23.71;62.84
15263;BME280;7733;51.554;13.590;2023-06-19T07:30:08;100224.88;;;23.85;61.62
15263;BME280;7733;51.554;13.590;2023-06-19T07:32:34;100222.22;;;23.73;62.19
15263;BME280;7733;51.554;13.590;2023-06-19T07:34:59;100222.97;;;23.87;61.90
15263;BME280;7733;51.554;13.590;2023-06-19T07:37:25;100223.06;;;24.22;60.95
15263;BME280;7733;51.554;13.590;2023-06-19T07:39:52;100230.84;;;24.02;62.73
15263;BME280;7733;51.554;13.590;2023-06-19T07:42:19;100233.22;;;23.93;62.37
15263;BME280;7733;51.554;13.590;2023-06-19T07:44:45;100231.84;;;24.37;61.49
15263;BME280;7733;51.554;13.590;2023-06-19T07:47:11;100229.81;;;24.28;61.33
15263;BME280;7733;51.554;13.590;2023-06-19T07:49:37;100231.56;;;24.53;60.04
15263;BME280;7733;51.554;13.590;2023-06-19T07:52:04;100234.53;;;24.85;59.95
15263;BME280;7733;51.554;13.590;2023-06-19T07:54:30;100232.28;;;24.79;59.81
15263;BME280;7733;51.554;13.590;2023-06-19T07:56:56;100231.53;;;24.77;59.74
15263;BME280;7733;51.554;13.590;2023-06-19T07:59:22;100231.31;;;24.80;58.18
15263;BME280;7733;51.554;13.590;2023-06-19T08:01:48;100236.28;;;24.73;57.89
15263;BME280;7733;51.554;13.590;2023-06-19T08:04:14;100232.31;;;25.14;57.72
15263;BME280;7733;51.554;13.590;2023-06-19T08:06:40;100232.47;;;25.35;57.56
15263;BME280;7733;51.554;13.590;2023-06-19T08:09:06;100230.53;;;25.37;56.65
15263;BME280;7733;51.554;13.590;2023-06-19T08:11:31;100224.19;;;25.38;56.50
15263;BME280;7733;51.554;13.590;2023-06-19T08:13:57;100220.41;;;25.63;55.30
15263;BME280;7733;51.554;13.590;2023-06-19T08:16:25;100221.25;;;26.19;54.68
15263;BME280;7733;51.554;13.590;2023-06-19T08:18:51;100215.94;;;25.74;54.83
15263;BME280;7733;51.554;13.590;2023-06-19T08:21:17;100222.81;;;26.33;53.99
15263;BME280;7733;51.554;13.590;2023-06-19T08:23:43;100224.91;;;26.41;53.51
15263;BME280;7733;51.554;13.590;2023-06-19T08:26:12;100227.13;;;26.35;51.69
15263;BME280;7733;51.554;13.590;2023-06-19T08:28:38;100235.44;;;26.44;51.68
15263;BME280;7733;51.554;13.590;2023-06-19T08:31:03;100234.66;;;26.42;50.75
15263;BME280;7733;51.554;13.590;2023-06-19T08:33:29;100229.28;;;26.53;50.97
15263;BME280;7733;51.554;13.590;2023-06-19T08:35:55;100231.22;;;26.83;50.75
15263;BME280;7733;51.554;13.590;2023-06-19T08:38:21;100235.13;;;26.90;51.08
15263;BME280;7733;51.554;13.590;2023-06-19T08:40:46;100238.06;;;26.87;50.89
15263;BME280;7733;51.554;13.590;2023-06-19T08:43:12;100231.63;;;27.10;51.15
15263;BME280;7733;51.554;13.590;2023-06-19T08:45:38;100225.84;;;27.15;51.05
15263;BME280;7733;51.554;13.590;2023-06-19T08:48:04;100223.28;;;27.13;50.10
15263;BME280;7733;51.554;13.590;2023-06-19T08:50:32;100223.91;;;27.47;50.51
15263;BME280;7733;51.554;13.590;2023-06-19T08:52:58;100227.72;;;27.66;50.12
15263;BME280;7733;51.554;13.590;2023-06-19T08:55:24;100233.97;;;27.45;50.75
15263;BME280;7733;51.554;13.590;2023-06-19T08:57:51;100228.75;;;27.74;49.95
15263;BME280;7733;51.554;13.590;2023-06-19T09:00:29;100229.09;;;27.39;49.54
15263;BME280;7733;51.554;13.590;2023-06-19T09:03:03;100227.88;;;27.43;50.40
15263;BME280;7733;51.554;13.590;2023-06-19T09:05:29;100226.50;;;27.79;49.86
15263;BME280;7733;51.554;13.590;2023-06-19T09:08:00;100222.59;;;27.93;49.21
15263;BME280;7733;51.554;13.590;2023-06-19T09:10:29;100231.28;;;27.66;49.47
15263;BME280;7733;51.554;13.590;2023-06-19T09:13:03;100231.19;;;27.56;49.06
15263;BME280;7733;51.554;13.590;2023-06-19T09:15:34;100235.72;;;27.77;49.41
15263;BME280;7733;51.554;13.590;2023-06-19T09:18:11;100238.75;;;27.93;49.23
15263;BME280;7733;51.554;13.590;2023-06-19T09:20:41;100229.06;;;27.81;48.89
15263;BME280;7733;51.554;13.590;2023-06-19T09:23:11;100231.81;;;28.00;48.09
15263;BME280;7733;51.554;13.590;2023-06-19T09:28:22;100227.06;;;27.83;48.08
15263;BME280;7733;51.554;13.590;2023-06-19T09:31:07;100228.59;;;28.16;47.17
15263;BME280;7733;51.554;13.590;2023-06-19T09:33:34;100223.03;;;28.48;46.55
15263;BME280;7733;51.554;13.590;2023-06-19T09:36:03;100218.84;;;28.25;47.40
15263;BME280;7733;51.554;13.590;2023-06-19T09:38:32;100223.06;;;28.17;47.85
15263;BME280;7733;51.554;13.590;2023-06-19T09:41:02;100217.59;;;28.29;48.72
15263;BME280;7733;51.554;13.590;2023-06-19T09:43:42;100217.25;;;28.22;49.08
15263;BME280;7733;51.554;13.590;2023-06-19T09:46:10;100220.47;;;28.46;48.13
15263;BME280;7733;51.554;13.590;2023-06-19T09:48:43;100212.78;;;28.32;48.27
15263;BME280;7733;51.554;13.590;2023-06-19T09:51:18;100215.53;;;28.11;49.74
15263;BME280;7733;51.554;13.590;2023-06-19T09:53:49;100210.44;;;28.08;48.61
15263;BME280;7733;51.554;13.590;2023-06-19T09:56:17;100210.53;;;28.66;48.18
15263;BME280;7733;51.554;13.590;2023-06-19T09:58:50;100214.22;;;28.46;47.52
15263;BME280;7733;51.554;13.590;2023-06-19T10:01:17;100214.41;;;28.04;47.16
15263;BME280;7733;51.554;13.590;2023-06-19T10:03:44;100221.00;;;28.31;47.59
15263;BME280;7733;51.554;13.590;2023-06-19T10:06:15;100212.78;;;28.61;47.35
15263;BME280;7733;51.554;13.590;2023-06-19T10:08:44;100205.69;;;28.60;47.16
15263;BME280;7733;51.554;13.590;2023-06-19T10:11:11;100202.88;;;28.71;46.18
15263;BME280;7733;51.554;13.590;2023-06-19T10:13:40;100201.16;;;28.99;45.79
15263;BME280;7733;51.554;13.590;2023-06-19T10:16:19;100207.84;;;29.05;45.17
15263;BME280;7733;51.554;13.590;2023-06-19T10:18:46;100210.09;;;29.19;44.49
15263;BME280;7733;51.554;13.590;2023-06-19T10:21:19;100204.22;;;29.33;44.23
15263;BME280;7733;51.554;13.590;2023-06-19T10:23:57;100215.19;;;29.22;45.04
15263;BME280;7733;51.554;13.590;2023-06-19T10:26:32;100213.25;;;29.05;45.55
15263;BME280;7733;51.554;13.590;2023-06-19T10:28:58;100210.22;;;29.47;44.83
15263;BME280;7733;51.554;13.590;2023-06-19T10:31:24;100206.41;;;29.01;45.34
15263;BME280;7733;51.554;13.590;2023-06-19T10:33:50;100213.50;;;28.83;45.51
15263;BME280;7733;51.554;13.590;2023-06-19T10:36:22;100197.56;;;29.18;44.72
15263;BME280;7733;51.554;13.590;2023-06-19T10:38:52;100192.91;;;28.53;46.12
15263;BME280;7733;51.554;13.590;2023-06-19T10:41:23;100190.34;;;29.09;45.30
15263;BME280;7733;51.554;13.590;2023-06-19T10:44:16;100184.56;;;29.41;44.85
15263;BME280;7733;51.554;13.590;2023-06-19T10:46:42;100182.31;;;29.46;45.57
15263;BME280;7733;51.554;13.590;2023-06-19T10:49:09;100177.78;;;29.47;45.14
15263;BME280;7733;51.554;13.590;2023-06-19T10:51:39;100186.38;;;28.74;45.39
15263;BME280;7733;51.554;13.590;2023-06-19T10:54:05;100184.34;;;29.15;45.15
15263;BME280;7733;51.554;13.590;2023-06-19T10:56:32;100175.25;;;29.63;44.28
15263;BME280;7733;51.554;13.590;2023-06-19T10:59:07;100183.97;;;29.57;44.16
15263;BME280;7733;51.554;13.590;2023-06-19T11:01:47;100192.41;;;29.44;44.74
15263;BME280;7733;51.554;13.590;2023-06-19T11:04:15;100180.09;;;29.13;44.69
15263;BME280;7733;51.554;13.590;2023-06-19T11:06:43;100173.22;;;29.75;43.83
15263;BME280;7733;51.554;13.590;2023-06-19T11:09:11;100177.59;;;29.85;44.01
15263;BME280;7733;51.554;13.590;2023-06-19T11:11:45;100176.78;;;29.75;44.00
15263;BME280;7733;51.554;13.590;2023-06-19T11:14:14;100183.97;;;29.57;43.54
15263;BME280;7733;51.554;13.590;2023-06-19T11:16:45;100175.19;;;30.10;43.57
15263;BME280;7733;51.554;13.590;2023-06-19T11:19:18;100171.56;;;30.19;42.69
15263;BME280;7733;51.554;13.590;2023-06-19T11:21:49;100165.56;;;30.25;42.02
15263;BME280;7733;51.554;13.590;2023-06-19T11:24:15;100170.97;;;29.97;41.90
15263;BME280;7733;51.554;13.590;2023-06-19T11:26:44;100170.44;;;30.75;41.00
15263;BME280;7733;51.554;13.590;2023-06-19T11:29:26;100155.34;;;30.90;39.43
15263;BME280;7733;51.554;13.590;2023-06-19T11:32:13;100159.63;;;31.18;38.70
15263;BME280;7733;51.554;13.590;2023-06-19T11:34:40;100164.56;;;31.23;38.53
15263;BME280;7733;51.554;13.590;2023-06-19T11:37:17;100154.81;;;31.12;38.85
15263;BME280;7733;51.554;13.590;2023-06-19T11:39:48;100151.44;;;31.70;38.13
15263;BME280;7733;51.554;13.590;2023-06-19T11:42:15;100148.91;;;31.43;38.87
15263;BME280;7733;51.554;13.590;2023-06-19T11:45:03;100157.31;;;32.00;38.07
15263;BME280;7733;51.554;13.590;2023-06-19T11:47:31;100151.81;;;31.84;37.52
15263;BME280;7733;51.554;13.590;2023-06-19T11:49:59;100146.41;;;31.50;38.19
15263;BME280;7733;51.554;13.590;2023-06-19T11:52:25;100156.97;;;31.61;38.10
15263;BME280;7733;51.554;13.590;2023-06-19T11:54:50;100153.25;;;31.28;38.94
15263;BME280;7733;51.554;13.590;2023-06-19T11:57:16;100156.44;;;31.57;39.23
15263;BME280;7733;51.554;13.590;2023-06-19T11:59:42;100151.44;;;31.70;38.20
15263;BME280;7733;51.554;13.590;2023-06-19T12:02:09;100148.97;;;31.51;37.90
15263;BME280;7733;51.554;13.590;2023-06-19T12:04:35;100159.50;;;31.62;37.82
15263;BME280;7733;51.554;13.590;2023-06-19T12:07:01;100153.13;;;31.11;38.50
15263;BME280;7733;51.554;13.590;2023-06-19T12:09:27;100151.41;;;31.36;38.17
15263;BME280;7733;51.554;13.590;2023-06-19T12:11:58;100151.06;;;31.31;38.40
15263;BME280;7733;51.554;13.590;2023-06-19T12:14:23;100156.50;;;31.31;38.42
15263;BME280;7733;51.554;13.590;2023-06-19T12:16:50;100149.34;;;31.04;38.99
15263;BME280;7733;51.554;13.590;2023-06-19T12:19:16;100147.22;;;30.90;40.37
15263;BME280;7733;51.554;13.590;2023-06-19T12:21:42;100152.50;;;30.74;41.06
15263;BME280;7733;51.554;13.590;2023-06-19T12:24:08;100138.91;;;30.92;41.08
15263;BME280;7733;51.554;13.590;2023-06-19T12:26:37;100145.19;;;30.92;40.74
15263;BME280;7733;51.554;13.590;2023-06-19T12:29:06;100150.31;;;30.59;41.22
15263;BME280;7733;51.554;13.590;2023-06-19T12:31:34;100150.00;;;30.63;41.17
15263;BME280;7733;51.554;13.590;2023-06-19T12:34:03;100148.22;;;30.36;41.49
15263;BME280;7733;51.554;13.590;2023-06-19T12:36:29;100150.94;;;30.53;40.32
15263;BME280;7733;51.554;13.590;2023-06-19T12:38:58;100148.91;;;30.55;40.20
15263;BME280;7733;51.554;13.590;2023-06-19T12:41:24;100148.84;;;30.47;40.43
15263;BME280;7733;51.554;13.590;2023-06-19T12:43:50;100142.66;;;30.55;40.17
15263;BME280;7733;51.554;13.590;2023-06-19T12:46:15;100144.13;;;30.49;40.07
15263;BME280;7733;51.554;13.590;2023-06-19T12:48:41;100142.31;;;30.68;40.06
15263;BME280;7733;51.554;13.590;2023-06-19T12:51:07;100140.19;;;30.26;40.64
15263;BME280;7733;51.554;13.590;2023-06-19T12:53:33;100143.28;;;30.31;41.34
15263;BME280;7733;51.554;13.590;2023-06-19T12:56:00;100136.25;;;30.38;40.42
15263;BME280;7733;51.554;13.590;2023-06-19T12:58:26;100134.06;;;30.42;40.66